Time;durP1;ratioP1;P1;durP2;ratioP2;P2;SDS_P1;SDS_P2;PMS_P1;PMS_P2;Temp;Humidity;BMP_temperature;BMP_pressure;BME280_temperature;BME280_humidity;BME280_pressure;Samples;Min_cycle;Max_cycle;Signal;HPM_P1;HPM_P2
2021/06/13 00:00:15;;;;;;;3.70;2.30;;;;;;;-143.37;100.00;65745.06;5119578;28;20260;-70
2021/06/13 00:02:42;;;;;;;4.25;2.97;;;;;;;-143.37;100.00;65745.06;5128987;27;20258;-70
2021/06/13 00:05:12;;;;;;;3.33;2.65;;;;;;;-143.37;100.00;65745.06;5131256;28;20241;-70
2021/06/13 00:07:39;;;;;;;3.88;2.92;;;;;;;-143.37;100.00;65745.06;5117758;28;20207;-70
2021/06/13 00:10:08;;;;;;;4.63;2.78;;;;;;;-143.37;100.00;65745.06;5112843;28;20228;-70
2021/06/13 00:12:35;;;;;;;3.50;2.78;;;;;;;-143.37;100.00;65745.06;5111654;28;20228;-70
2021/06/13 00:15:04;;;;;;;3.03;2.65;;;;;;;-143.37;100.00;65745.06;5103558;28;20200;-70
2021/06/13 00:17:31;;;;;;;3.95;2.58;;;;;;;-143.37;100.00;65745.06;5112203;28;20200;-70
2021/06/13 00:19:57;;;;;;;3.55;2.75;;;;;;;-143.37;100.00;65745.06;5111721;28;20634;-70
2021/06/13 00:22:24;;;;;;;4.00;2.63;;;;;;;-143.37;100.00;65745.06;5110041;28;20230;-70
2021/06/13 00:24:50;;;;;;;4.03;2.70;;;;;;;-143.37;100.00;65745.06;5111785;28;20230;-70
2021/06/13 00:27:17;;;;;;;4.22;2.88;;;;;;;-143.37;100.00;65745.06;5110509;28;20218;-70
2021/06/13 00:29:43;;;;;;;2.75;2.22;;;;;;;-143.37;100.00;65745.06;5111265;28;20269;-70
2021/06/13 00:32:10;;;;;;;3.20;2.40;;;;;;;-143.37;100.00;65745.06;5111163;28;20224;-70
2021/06/13 00:34:37;;;;;;;5.43;2.28;;;;;;;-143.37;100.00;65745.06;5111737;28;20583;-70
2021/06/13 00:37:03;;;;;;;2.33;1.92;;;;;;;-143.37;100.00;65745.06;5111881;28;20758;-70
2021/06/13 00:39:29;;;;;;;2.88;2.20;;;;;;;-143.37;100.00;65745.06;5111884;28;20284;-70
2021/06/13 00:41:56;;;;;;;2.13;1.92;;;;;;;-143.37;100.00;65745.06;5111811;28;20246;-70
2021/06/13 00:44:23;;;;;;;2.25;2.03;;;;;;;-143.37;100.00;65745.06;5116747;27;20204;-70
2021/06/13 00:46:50;;;;;;;4.53;2.28;;;;;;;-143.37;100.00;65745.06;5110606;28;20208;-70
2021/06/13 00:49:16;;;;;;;2.47;2.08;;;;;;;-143.37;100.00;65745.06;5110872;28;20223;-69
2021/06/13 00:51:43;;;;;;;2.25;1.98;;;;;;;-143.37;100.00;65745.06;5110478;28;20279;-70
2021/06/13 00:54:10;;;;;;;2.25;2.00;;;;;;;-143.37;100.00;65745.06;5111845;27;20214;-70
2021/06/13 00:56:36;;;;;;;3.55;2.58;;;;;;;-143.37;100.00;65745.06;5111610;28;20663;-70
2021/06/13 00:59:03;;;;;;;4.25;2.65;;;;;;;-143.37;100.00;65745.06;5111345;28;20664;-69
2021/06/13 01:34:39;;;;;;;3.73;1.93;;;;;;;;;;5161925;27;21018;-69
2021/06/13 01:37:07;;;;;;;4.37;2.03;;;;;;;;;;5129337;27;20197;-69
2021/06/13 01:39:35;;;;;;;2.80;1.80;;;;;;;;;;5129207;27;20234;-69
2021/06/13 01:42:02;;;;;;;1.90;1.50;;;;;;;;;;5128671;27;20219;-69
2021/06/13 01:44:28;;;;;;;1.77;1.50;;;;;;;;;;5133237;27;20683;-69
2021/06/13 01:46:55;;;;;;;4.17;1.77;;;;;;;;;;5128562;27;20207;-69
2021/06/13 01:49:22;;;;;;;2.53;1.63;;;;;;;;;;5128873;27;20246;-69
2021/06/13 01:51:49;;;;;;;1.40;1.30;;;;;;;;;;5127888;27;20286;-69
2021/06/13 01:54:17;;;;;;;3.40;1.93;;;;;;;;;;5128484;27;20790;-70
2021/06/13 01:56:48;;;;;;;1.90;1.40;;;;;;;;;;5128556;27;20553;-70
2021/06/13 01:59:16;;;;;;;1.80;1.33;;;;;;;;;;5128260;27;20690;-69
2021/06/13 02:01:43;;;;;;;2.40;1.48;;;;;;;;;;5127353;27;20239;-70
2021/06/13 02:04:10;;;;;;;3.40;1.25;;;;;;;;;;5128633;27;20207;-70
2021/06/13 02:06:39;;;;;;;1.60;1.20;;;;;;;;;;5128325;27;20252;-70
2021/06/13 02:09:06;;;;;;;2.07;1.63;;;;;;;;;;5128594;27;20295;-69
2021/06/13 02:11:33;;;;;;;1.45;1.10;;;;;;;;;;5128003;27;20207;-70
2021/06/13 02:14:01;;;;;;;1.48;1.08;;;;;;;;;;5127999;27;20231;-70
2021/06/13 02:16:28;;;;;;;2.13;1.30;;;;;;;;;;5128580;27;20294;-69
2021/06/13 02:18:55;;;;;;;1.20;1.10;;;;;;;;;;5128359;27;20200;-70
2021/06/13 02:21:22;;;;;;;2.20;1.00;;;;;;;;;;5128390;27;20282;-69
2021/06/13 02:23:49;;;;;;;1.77;1.17;;;;;;;;;;5127337;27;20764;-70
2021/06/13 02:26:17;;;;;;;1.08;0.95;;;;;;;;;;5126956;28;20199;-70
2021/06/13 02:28:50;;;;;;;1.33;1.00;;;;;;;;;;5126677;28;20204;-70
2021/06/13 02:31:17;;;;;;;1.30;0.87;;;;;;;;;;5126995;28;20702;-70
2021/06/13 02:33:45;;;;;;;4.57;0.90;;;;;;;;;;5127412;27;20238;-70
2021/06/13 02:36:12;;;;;;;1.67;0.93;;;;;;;;;;5127741;28;20234;-69
2021/06/13 02:38:38;;;;;;;1.33;0.70;;;;;;;;;;5128179;27;20195;-69
2021/06/13 02:41:05;;;;;;;1.83;1.30;;;;;;;;;;5127598;27;20663;-69
2021/06/13 02:43:32;;;;;;;0.80;0.77;;;;;;;;;;5133347;27;20908;-70
2021/06/13 02:45:58;;;;;;;1.13;0.75;;;;;;;;;;5113925;27;20215;-69
2021/06/13 02:48:25;;;;;;;1.20;1.00;;;;;;;;;;5113787;28;20644;-69
2021/06/13 02:50:52;;;;;;;1.60;0.83;;;;;;;;;;5113824;28;20672;-69
2021/06/13 02:53:21;;;;;;;1.07;0.87;;;;;;;;;;5113128;28;20228;-70
2021/06/13 02:55:59;;;;;;;1.30;0.73;;;;;;;;;;5113555;28;20206;-69
2021/06/13 02:58:25;;;;;;;2.13;0.80;;;;;;;;;;5114124;28;20214;-69
2021/06/13 03:00:51;;;;;;;1.63;0.97;;;;;;;;;;5113783;28;20298;-70
2021/06/13 03:03:20;;;;;;;1.10;0.88;;;;;;;;;;5113147;28;20224;-70
2021/06/13 03:05:47;;;;;;;0.63;0.60;;;;;;;;;;5113501;28;20272;-69
2021/06/13 03:08:14;;;;;;;3.83;1.07;;;;;;;;;;5113435;28;20310;-70
2021/06/13 03:10:41;;;;;;;5.57;1.97;;;;;;;;;;5113327;28;20226;-69
2021/06/13 03:13:08;;;;;;;1.27;1.03;;;;;;;;;;5112659;28;20315;-69
2021/06/13 03:15:34;;;;;;;1.47;1.37;;;;;;;;;;5113561;28;20527;-69
2021/06/13 03:18:01;;;;;;;1.30;1.10;;;;;;;;;;5113684;28;20210;-70
2021/06/13 03:20:29;;;;;;;6.80;1.00;;;;;;;;;;5114504;28;20256;-69
2021/06/13 03:22:56;;;;;;;1.87;1.00;;;;;;;;;;5112927;28;20331;-69
2021/06/13 03:25:23;;;;;;;0.73;0.67;;;;;;;;;;5113645;28;20279;-70
2021/06/13 03:27:50;;;;;;;1.63;1.03;;;;;;;;;;5113015;28;20732;-70
2021/06/13 03:30:17;;;;;;;1.80;1.17;;;;;;;;;;5113213;28;20200;-69
2021/06/13 03:32:44;;;;;;;1.13;0.93;;;;;;;;;;5111900;28;20235;-69
2021/06/13 03:35:11;;;;;;;2.10;0.97;;;;;;;;;;5112917;28;20196;-69
2021/06/13 03:37:37;;;;;;;1.77;0.87;;;;;;;;;;5113015;28;20287;-70
2021/06/13 03:40:04;;;;;;;0.50;0.50;;;;;;;;;;5112928;28;20574;-69
2021/06/13 03:42:31;;;;;;;0.70;0.70;;;;;;;;;;5112195;28;20306;-70
2021/06/13 03:44:58;;;;;;;1.33;1.10;;;;;;;;;;5112475;28;20283;-70
2021/06/13 03:47:26;;;;;;;0.93;0.63;;;;;;;;;;5112785;28;20290;-70
2021/06/13 03:49:53;;;;;;;0.60;0.60;;;;;;;;;;5111163;28;20212;-69
2021/06/13 03:52:22;;;;;;;0.93;0.70;;;;;;;;;;5112061;28;20307;-69
2021/06/13 03:54:49;;;;;;;0.70;0.60;;;;;;;;;;5112557;28;20228;-70
2021/06/13 03:57:16;;;;;;;2.53;0.93;;;;;;;;;;5111614;28;20287;-71
2021/06/13 03:59:43;;;;;;;0.70;0.70;;;;;;;;;;5112594;28;20203;-70
2021/06/13 04:02:10;;;;;;;3.50;0.97;;;;;;;;;;5110579;28;20220;-70
2021/06/13 04:04:38;;;;;;;1.13;0.60;;;;;;;;;;5110737;28;20651;-70
2021/06/13 04:07:06;;;;;;;1.80;1.33;;;;;;;;;;5112570;28;20299;-70
2021/06/13 04:09:33;;;;;;;1.73;0.90;;;;;;;;;;5112547;28;20208;-70
2021/06/13 04:11:59;;;;;;;0.70;0.70;;;;;;;;;;5110147;28;20207;-70
2021/06/13 04:14:26;;;;;;;1.47;0.67;;;;;;;;;;5112106;28;20696;-70
2021/06/13 04:16:53;;;;;;;1.03;0.83;;;;;;;;;;5111925;28;20307;-70
2021/06/13 04:19:20;;;;;;;0.90;0.67;;;;;;;;;;5112353;28;20204;-70
2021/06/13 04:21:51;;;;;;;1.87;1.10;;;;;;;;;;5110247;28;20207;-70
2021/06/13 04:24:17;;;;;;;0.93;0.67;;;;;;;;;;5112241;28;20240;-69
2021/06/13 04:26:44;;;;;;;0.97;0.60;;;;;;;;;;5111892;28;20207;-71
2021/06/13 04:29:11;;;;;;;1.60;0.87;;;;;;;;;;5112127;28;20286;-70
2021/06/13 04:31:37;;;;;;;2.73;0.90;;;;;;;;;;5111271;28;20203;-71
2021/06/13 04:34:04;;;;;;;0.73;0.63;;;;;;;;;;5111605;28;20249;-70
2021/06/13 04:36:30;;;;;;;1.03;0.70;;;;;;;;;;5112068;28;20238;-71
2021/06/13 04:38:57;;;;;;;0.80;0.53;;;;;;;;;;5110600;28;20287;-70
2021/06/13 04:41:23;;;;;;;0.90;0.53;;;;;;;;;;5111790;28;20225;-70
2021/06/13 04:43:50;;;;;;;0.60;0.50;;;;;;;;;;5117589;27;20331;-70
2021/06/13 04:46:26;;;;;;;0.43;0.43;;;;;;;;;;5111561;28;20204;-70
2021/06/13 04:48:52;;;;;;;1.60;0.83;;;;;;;;;;5111494;28;20211;-69
2021/06/13 04:51:19;;;;;;;1.33;0.77;;;;;;;;;;5111752;27;20207;-71
2021/06/13 04:53:49;;;;;;;2.07;0.90;;;;;;;;;;5109294;28;20684;-71
2021/06/13 04:56:34;;;;;;;1.07;0.50;;;;;;;;;;5111596;28;20199;-71
2021/06/13 04:59:01;;;;;;;0.80;0.80;;;;;;;;;;5111817;28;20214;-70
2021/06/13 05:01:27;;;;;;;1.20;0.60;;;;;;;;;;5092986;28;20690;-70
2021/06/13 05:03:54;;;;;;;0.63;0.57;;;;;;;;;;5111499;28;20251;-70
2021/06/13 05:06:21;;;;;;;0.98;0.77;;;;;;;;;;5111087;28;20227;-70
2021/06/13 05:08:47;;;;;;;1.40;0.85;;;;;;;;;;5113173;28;20644;-70
2021/06/13 05:11:14;;;;;;;0.87;0.63;;;;;;;;;;5114138;28;20239;-70
2021/06/13 05:13:41;;;;;;;0.95;0.63;;;;;;;;;;5110947;28;20237;-70
2021/06/13 05:16:07;;;;;;;0.77;0.68;;;;;;;;;;5110847;28;20283;-70
2021/06/13 05:18:34;;;;;;;1.75;0.90;;;;;;;;;;5111773;28;20287;-70
2021/06/13 05:21:00;;;;;;;0.47;0.47;;;;;;;;;;5112057;28;20211;-70
2021/06/13 05:23:27;;;;;;;1.13;0.75;;;;;;;;;;5110277;28;20306;-70
2021/06/13 05:25:57;;;;;;;0.98;0.70;;;;;;;;;;5111286;28;20318;-71
2021/06/13 05:28:26;;;;;;;1.23;0.73;;;;;;;;;;5111385;28;20204;-70
2021/06/13 05:30:53;;;;;;;0.88;0.75;;;;;;;;;;5110971;28;20588;-71
2021/06/13 05:33:19;;;;;;;1.45;0.77;;;;;;;;;;5110495;28;20661;-70
2021/06/13 05:35:47;;;;;;;0.80;0.47;;;;;;;;;;5110949;28;20287;-71
2021/06/13 05:38:15;;;;;;;1.38;0.63;;;;;;;;;;5111198;28;20199;-72
2021/06/13 05:40:42;;;;;;;0.93;0.45;;;;;;;;;;5111335;28;20579;-69
2021/06/13 05:43:09;;;;;;;0.35;0.35;;;;;;;;;;5116883;27;20228;-70
2021/06/13 05:45:36;;;;;;;1.95;0.70;;;;;;;;;;5110979;28;20226;-70
2021/06/13 05:48:02;;;;;;;3.08;0.70;;;;;;;;;;5110922;28;20200;-69
2021/06/13 05:50:29;;;;;;;0.77;0.40;;;;;;;;;;5111307;28;20235;-70
2021/06/13 05:52:57;;;;;;;0.75;0.52;;;;;;;;;;5110025;28;20711;-70
2021/06/13 05:55:24;;;;;;;1.30;0.45;;;;;;;;;;5110504;28;20260;-70
2021/06/13 05:57:51;;;;;;;2.80;0.50;;;;;;;;;;5111483;28;20584;-70
2021/06/13 06:00:23;;;;;;;1.25;0.50;;;;;;;;;;5111542;28;20200;-68
2021/06/13 06:02:49;;;;;;;1.33;0.68;;;;;;;;;;5111144;28;20268;-69
2021/06/13 06:05:17;;;;;;;1.05;0.57;;;;;;;;;;5111208;28;20223;-68
2021/06/13 06:07:43;;;;;;;1.17;0.60;;;;;;;;;;5093110;28;20675;-69
2021/06/13 06:10:11;;;;;;;2.38;0.75;;;;;;;;;;5109702;28;20389;-70
2021/06/13 06:12:38;;;;;;;0.30;0.30;;;;;;;;;;5110356;28;20319;-68
2021/06/13 06:15:06;;;;;;;0.50;0.50;;;;;;;;;;5111011;28;20206;-70
2021/06/13 06:17:37;;;;;;;0.40;0.40;;;;;;;;;;5110618;28;20231;-70
2021/06/13 06:20:05;;;;;;;1.08;0.65;;;;;;;;;;5112432;28;20215;-67
2021/06/13 06:22:31;;;;;;;4.00;0.80;;;;;;;;;;5096096;28;20318;-69
2021/06/13 06:24:57;;;;;;;1.85;1.00;;;;;;;;;;5114476;27;20226;-69
2021/06/13 06:27:24;;;;;;;2.17;0.65;;;;;;;;;;5115035;28;20210;-71
2021/06/13 06:29:50;;;;;;;1.25;0.57;;;;;;;;;;5113468;28;20208;-69
2021/06/13 06:32:18;;;;;;;0.82;0.50;;;;;;;;;;5113604;28;20220;-68
2021/06/13 06:34:44;;;;;;;0.68;0.52;;;;;;;;;;5114179;28;20200;-69
2021/06/13 06:37:11;;;;;;;1.65;0.63;;;;;;;;;;5114003;28;20581;-67
2021/06/13 06:39:37;;;;;;;1.45;0.63;;;;;;;;;;5114542;28;20291;-70
2021/06/13 06:42:03;;;;;;;0.85;0.45;;;;;;;;;;5115228;27;20262;-71
2021/06/13 06:44:30;;;;;;;0.30;0.30;;;;;;;;;;5118088;27;20691;-70
2021/06/13 06:47:01;;;;;;;1.63;0.70;;;;;;;;;;5112592;28;20207;-69
2021/06/13 06:49:29;;;;;;;0.75;0.52;;;;;;;;;;5114423;28;20287;-70
2021/06/13 06:51:57;;;;;;;1.33;0.90;;;;;;;;;;5113321;28;20245;-70
2021/06/13 06:54:23;;;;;;;1.38;0.50;;;;;;;;;;5114107;28;20229;-70
2021/06/13 06:56:50;;;;;;;0.57;0.50;;;;;;;;;;5112636;28;20209;-69
2021/06/13 06:59:16;;;;;;;1.17;0.43;;;;;;;;;;5112769;28;20217;-69
2021/06/13 07:01:43;;;;;;;1.85;0.63;;;;;;;;;;5112921;28;20219;-68
2021/06/13 07:04:13;;;;;;;0.75;0.55;;;;;;;;;;5113890;28;20223;-69
2021/06/13 07:06:40;;;;;;;0.75;0.55;;;;;;;;;;5113619;28;20608;-68
2021/06/13 07:09:06;;;;;;;1.15;0.68;;;;;;;;;;5113772;28;20211;-69
2021/06/13 07:11:32;;;;;;;1.35;0.80;;;;;;;;;;5113222;28;20223;-69
2021/06/13 07:13:59;;;;;;;0.95;0.50;;;;;;;;;;5113157;28;20307;-70
2021/06/13 07:16:26;;;;;;;0.88;0.63;;;;;;;;;;5113194;28;20295;-70
2021/06/13 07:18:52;;;;;;;1.20;0.70;;;;;;;;;;5113509;28;20210;-70
2021/06/13 07:21:19;;;;;;;1.05;0.70;;;;;;;;;;5113671;28;20235;-69
2021/06/13 07:23:45;;;;;;;1.20;0.60;;;;;;;;;;5112509;28;20230;-69
2021/06/13 07:26:11;;;;;;;1.23;0.55;;;;;;;;;;5113433;28;20204;-69
2021/06/13 07:28:38;;;;;;;0.65;0.50;;;;;;;;;;5112815;28;20282;-69
2021/06/13 07:31:05;;;;;;;0.55;0.55;;;;;;;;;;5113272;28;20282;-70
2021/06/13 07:33:32;;;;;;;0.50;0.50;;;;;;;;;;5112535;28;20232;-70
2021/06/13 07:35:59;;;;;;;0.77;0.60;;;;;;;;;;5113488;28;20231;-69
2021/06/13 07:38:25;;;;;;;1.10;0.60;;;;;;;;;;5113970;28;20203;-70
2021/06/13 07:40:52;;;;;;;2.22;0.80;;;;;;;;;;5116373;28;20215;-70
2021/06/13 07:43:18;;;;;;;0.45;0.40;;;;;;;;;;5126100;27;20262;-69
2021/06/13 07:45:45;;;;;;;0.82;0.70;;;;;;;;;;5121321;28;20306;-68
2021/06/13 07:48:12;;;;;;;0.50;0.50;;;;;;;;;;5114034;28;20195;-68
2021/06/13 07:50:40;;;;;;;0.75;0.55;;;;;;;;;;5113046;28;20196;-70
2021/06/13 07:53:07;;;;;;;1.65;0.60;;;;;;;;;;5112782;28;20219;-70
2021/06/13 07:55:34;;;;;;;0.90;0.68;;;;;;;;;;5111837;28;20230;-68
2021/06/13 07:58:01;;;;;;;0.93;0.70;;;;;;;;;;5113297;28;20714;-69
2021/06/13 08:00:27;;;;;;;4.03;0.90;;;;;;;;;;5112888;28;20207;-69
2021/06/13 08:02:53;;;;;;;0.68;0.40;;;;;;;;;;5111987;28;20321;-68
2021/06/13 08:05:27;;;;;;;0.52;0.50;;;;;;;;;;5113266;28;20231;-72
2021/06/13 08:07:59;;;;;;;0.55;0.52;;;;;;;;;;5114235;28;20294;-69
2021/06/13 08:10:26;;;;;;;1.55;0.60;;;;;;;;;;5113070;28;20207;-68
2021/06/13 08:12:53;;;;;;;2.22;0.68;;;;;;;;;;5111857;28;20223;-69
2021/06/13 08:15:20;;;;;;;0.50;0.50;;;;;;;;;;5113466;27;20218;-68
2021/06/13 08:17:47;;;;;;;0.52;0.40;;;;;;;;;;5112701;28;20213;-69
2021/06/13 08:20:17;;;;;;;0.50;0.50;;;;;;;;;;5112775;28;20219;-72
2021/06/13 08:22:44;;;;;;;1.80;0.75;;;;;;;;;;5111817;28;20247;-69
2021/06/13 08:25:11;;;;;;;0.45;0.40;;;;;;;;;;5113190;28;20284;-67
2021/06/13 08:27:38;;;;;;;1.15;0.82;;;;;;;;;;5110933;28;20278;-70
2021/06/13 08:30:06;;;;;;;0.73;0.47;;;;;;;;;;5111911;28;20199;-69
2021/06/13 08:32:32;;;;;;;0.32;0.32;;;;;;;;;;5110901;28;20348;-69
2021/06/13 08:34:59;;;;;;;0.93;0.60;;;;;;;;;;5111246;28;20732;-68
2021/06/13 08:37:25;;;;;;;0.47;0.47;;;;;;;;;;5111178;28;20210;-68
2021/06/13 08:39:51;;;;;;;2.08;0.80;;;;;;;;;;5111396;28;20240;-68
2021/06/13 08:42:18;;;;;;;2.05;0.60;;;;;;;;;;5114391;27;20215;-68
2021/06/13 08:44:48;;;;;;;2.78;0.75;;;;;;;;;;5112757;27;20219;-68
2021/06/13 08:47:16;;;;;;;3.33;2.10;;;;;;;;;;5111414;28;20296;-67
2021/06/13 08:49:43;;;;;;;1.10;0.70;;;;;;;;;;5110799;28;20611;-68
2021/06/13 08:52:10;;;;;;;1.20;0.82;;;;;;;;;;5110512;28;20250;-68
2021/06/13 08:54:40;;;;;;;0.70;0.55;;;;;;;;;;5110220;28;20231;-70
2021/06/13 08:57:07;;;;;;;0.90;0.50;;;;;;;;;;5109979;28;20295;-67
2021/06/13 08:59:34;;;;;;;0.88;0.50;;;;;;;;;;5110139;28;20290;-67
2021/06/13 09:02:01;;;;;;;1.38;0.80;;;;;;;;;;5110121;28;20770;-67
2021/06/13 09:04:29;;;;;;;2.17;1.02;;;;;;;;;;5110913;28;20266;-69
2021/06/13 09:06:56;;;;;;;1.20;0.60;;;;;;;;;;5110697;28;20203;-68
2021/06/13 09:09:24;;;;;;;1.48;0.70;;;;;;;;;;5111207;28;20226;-69
2021/06/13 09:12:19;;;;;;;2.00;0.93;;;;;;;;;;5110180;28;20207;-69
2021/06/13 09:14:47;;;;;;;0.70;0.60;;;;;;;;;;5103868;28;20336;-68
2021/06/13 09:17:14;;;;;;;0.80;0.50;;;;;;;;;;5109254;28;20211;-71
2021/06/13 09:20:00;;;;;;;0.38;0.38;;;;;;;;;;5110487;28;20279;-70
2021/06/13 09:22:26;;;;;;;0.95;0.65;;;;;;;;;;5109922;28;20254;-70
2021/06/13 09:25:05;;;;;;;1.30;0.85;;;;;;;;;;5110312;28;20242;-69
2021/06/13 09:27:31;;;;;;;2.22;2.00;;;;;;;;;;5110333;28;20285;-68
2021/06/13 09:29:58;;;;;;;1.90;1.67;;;;;;;;;;5110092;28;20203;-70
2021/06/13 09:32:24;;;;;;;3.80;1.00;;;;;;;;;;5109525;28;20258;-69
2021/06/13 09:35:09;;;;;;;2.28;0.43;;;;;;;;;;5110280;28;20214;-69
2021/06/13 09:37:35;;;;;;;1.08;0.70;;;;;;;;;;5109918;28;20301;-68
2021/06/13 09:40:09;;;;;;;0.88;0.60;;;;;;;;;;5101828;28;20234;-71
2021/06/13 09:42:36;;;;;;;2.58;1.45;;;;;;;;;;5115718;28;20590;-69
2021/06/13 09:45:15;;;;;;;1.55;0.90;;;;;;;;;;5111103;28;20226;-72
2021/06/13 09:47:41;;;;;;;1.42;0.98;;;;;;;;;;5108230;28;20252;-69
2021/06/13 09:50:08;;;;;;;2.03;1.10;;;;;;;;;;5108223;28;20188;-69
2021/06/13 09:52:34;;;;;;;4.57;2.97;;;;;;;;;;5109685;28;20683;-70
2021/06/13 09:55:11;;;;;;;7.57;4.38;;;;;;;;;;5111468;28;20723;-70
2021/06/13 09:57:56;;;;;;;0.85;0.63;;;;;;;;;;5114641;28;20370;-69
2021/06/13 10:00:24;;;;;;;2.05;1.30;;;;;;;;;;5114558;28;20203;-70
2021/06/13 10:02:51;;;;;;;4.85;3.13;;;;;;;;;;5111622;28;20321;-70
2021/06/13 10:05:18;;;;;;;0.82;0.47;;;;;;;;;;5113977;28;20263;-70
2021/06/13 10:07:46;;;;;;;0.73;0.47;;;;;;;;;;5112966;28;20203;-69
2021/06/13 10:10:12;;;;;;;18.60;13.25;;;;;;;;;;5113367;28;20286;-69
2021/06/13 10:12:52;;;;;;;4.95;4.20;;;;;;;;;;5112235;28;20238;-71
2021/06/13 10:15:18;;;;;;;7.10;6.20;;;;;;;;;;5113221;28;20212;-69
2021/06/13 10:17:45;;;;;;;4.22;2.97;;;;;;;;;;5111563;28;20691;-69
2021/06/13 10:20:23;;;;;;;15.05;10.10;;;;;;;;;;5111459;28;20716;-69
2021/06/13 10:22:50;;;;;;;4.85;2.70;;;;;;;;;;5112139;28;20219;-70
2021/06/13 10:25:16;;;;;;;1.80;1.38;;;;;;;;;;5113362;28;20344;-70
2021/06/13 10:27:43;;;;;;;2.88;1.58;;;;;;;;;;5112306;28;20202;-69
2021/06/13 10:30:10;;;;;;;1.10;0.63;;;;;;;;;;5113279;28;20231;-69
2021/06/13 10:32:36;;;;;;;13.32;7.00;;;;;;;;;;5110919;28;20310;-70
2021/06/13 10:35:03;;;;;;;23.35;8.30;;;;;;;;;;5113454;28;20237;-69
2021/06/13 10:37:31;;;;;;;0.85;0.75;;;;;;;;;;5113357;28;20204;-71
2021/06/13 10:39:58;;;;;;;3.92;1.65;;;;;;;;;;5113097;28;20265;-71
2021/06/13 10:42:25;;;;;;;2.22;0.95;;;;;;;;;;5115833;27;20227;-70
2021/06/13 10:44:53;;;;;;;0.82;0.70;;;;;;;;;;5113106;27;20260;-70
2021/06/13 10:47:21;;;;;;;3.55;2.67;;;;;;;;;;5112764;28;20203;-70
2021/06/13 10:50:09;;;;;;;5.25;3.22;;;;;;;;;;5113434;28;20216;-69
2021/06/13 10:52:36;;;;;;;7.35;4.90;;;;;;;;;;5111682;28;20255;-69
2021/06/13 10:55:06;;;;;;;1.95;1.60;;;;;;;;;;5114696;28;20204;-69
2021/06/13 10:57:36;;;;;;;1.02;0.80;;;;;;;;;;5117210;28;20672;-68
2021/06/13 11:00:25;;;;;;;0.85;0.70;;;;;;;;;;5125434;28;20229;-70
2021/06/13 11:02:59;;;;;;;1.60;0.55;;;;;;;;;;5129123;28;20288;-69
2021/06/13 11:05:33;;;;;;;0.70;0.50;;;;;;;;;;5126744;28;20223;-72
2021/06/13 11:08:00;;;;;;;0.57;0.50;;;;;;;;;;5107914;28;20230;-69
2021/06/13 11:10:28;;;;;;;2.67;1.65;;;;;;;;;;5112957;28;20283;-70
2021/06/13 11:12:59;;;;;;;0.82;0.65;;;;;;;;;;5111962;28;20266;-70
2021/06/13 11:17:56;;;;;;;0.95;0.63;;;;;;;;;;5112027;28;21550;-68
2021/06/13 11:21:04;;;;;;;2.05;1.40;;;;;;;;;;5112270;28;20295;-69
2021/06/13 11:23:21;;;;;;;2.28;1.30;;;;;;;;;;5109477;28;20240;-68
2021/06/13 11:25:48;;;;;;;1.40;0.70;;;;;;;;;;5111061;28;20375;-68
2021/06/13 11:28:15;;;;;;;4.53;3.70;;;;;;;;;;5111011;28;20207;-68
2021/06/13 11:30:45;;;;;;;1.27;0.80;;;;;;;;;;5111223;28;20263;-69
2021/06/13 11:33:34;;;;;;;5.43;4.07;;;;;;;;;;5109971;28;20613;-69
2021/06/13 11:36:01;;;;;;;15.65;9.38;;;;;;;;;;5110490;28;20200;-68
2021/06/13 11:38:28;;;;;;;1.27;1.10;;;;;;;;;;5110848;28;20236;-71
2021/06/13 11:40:59;;;;;;;2.60;1.63;;;;;;;;;;5111139;28;20212;-70
2021/06/13 11:43:40;;;;;;;1.40;1.30;;;;;;;;;;5116834;27;20274;-71
2021/06/13 11:46:10;;;;;;;1.52;1.17;;;;;;;;;;5110468;27;20299;-70
2021/06/13 11:48:37;;;;;;;2.10;1.27;;;;;;;;;;5110647;28;20200;-70
2021/06/13 11:51:08;;;;;;;0.90;0.57;;;;;;;;;;5110960;28;20583;-69
2021/06/13 11:53:47;;;;;;;1.58;1.10;;;;;;;;;;5110898;28;20238;-69
2021/06/13 11:56:32;;;;;;;1.27;0.80;;;;;;;;;;5110866;28;20267;-69
2021/06/13 11:59:00;;;;;;;1.17;0.55;;;;;;;;;;5110935;28;20242;-69
2021/06/13 12:01:26;;;;;;;0.98;0.70;;;;;;;;;;5109924;28;20315;-69
2021/06/13 12:03:55;;;;;;;0.77;0.52;;;;;;;;;;5110238;28;20307;-71
2021/06/13 12:06:22;;;;;;;1.63;1.00;;;;;;;;;;5109982;28;20339;-70
2021/06/13 12:08:49;;;;;;;3.15;1.00;;;;;;;;;;5110111;27;20206;-69
2021/06/13 12:11:45;;;;;;;8.93;5.15;;;;;;;;;;5111326;28;20300;-69
2021/06/13 12:14:18;;;;;;;1.98;0.68;;;;;;;;;;5104826;28;20199;-71
2021/06/13 12:16:44;;;;;;;7.78;1.10;;;;;;;;;;5110112;28;20248;-69
2021/06/13 12:19:11;;;;;;;3.45;2.03;;;;;;;;;;5109402;28;20603;-70
2021/06/13 12:21:38;;;;;;;1.95;0.90;;;;;;;;;;5108551;28;20202;-69
2021/06/13 12:24:12;;;;;;;0.82;0.80;;;;;;;;;;5108677;28;20306;-71
2021/06/13 12:29:24;;;;;;;2.65;1.65;;;;;;;;;;5110010;28;20282;-71
2021/06/13 12:31:51;;;;;;;1.33;1.23;;;;;;;;;;5131074;27;20259;-68
2021/06/13 12:34:19;;;;;;;1.17;0.95;;;;;;;;;;5116666;27;20279;-71
2021/06/13 12:36:52;;;;;;;3.03;1.45;;;;;;;;;;5130606;27;20199;-71
2021/06/13 12:39:29;;;;;;;2.17;1.48;;;;;;;;;;5128946;27;20221;-71
2021/06/13 12:42:11;;;;;;;5.55;2.70;;;;;;;;;;5111380;27;20226;-71
2021/06/13 12:44:39;;;;;;;2.38;1.67;;;;;;;;;;5141379;27;20704;-71
2021/06/13 12:47:07;;;;;;;4.95;2.67;;;;;;;;;;5141047;27;20311;-69
2021/06/13 12:49:40;;;;;;;7.45;1.55;;;;;;;;;;5114009;27;20209;-70
2021/06/13 12:52:14;;;;;;;1.33;0.73;;;;;;;;;;5119908;27;20273;-70
2021/06/13 12:54:41;;;;;;;1.95;1.30;;;;;;;;;;5148788;27;20285;-70
2021/06/13 12:57:08;;;;;;;2.17;1.33;;;;;;;;;;5131340;27;20238;-70
2021/06/13 12:59:36;;;;;;;1.02;0.93;;;;;;;;;;5131741;27;20297;-70
2021/06/13 13:02:06;;;;;;;3.53;0.93;;;;;;;;;;5148778;27;20212;-72
2021/06/13 13:04:51;;;;;;;2.65;0.70;;;;;;;;;;5149424;27;20210;-69
2021/06/13 13:07:28;;;;;;;3.70;1.20;;;;;;;;;;5130463;27;20310;-71
2021/06/13 13:10:09;;;;;;;1.30;0.60;;;;;;;;;;5146175;27;20219;-70
2021/06/13 13:12:41;;;;;;;11.40;5.90;;;;;;;;;;5127319;27;21149;-72
2021/06/13 13:15:11;;;;;;;6.13;3.63;;;;;;;;;;5118800;27;20233;-69
2021/06/13 13:17:37;;;;;;;4.78;2.78;;;;;;;;;;5128759;27;20238;-69
2021/06/13 13:20:17;;;;;;;0.82;0.77;;;;;;;;;;5128479;27;20683;-70
2021/06/13 13:22:44;;;;;;;1.20;0.70;;;;;;;;;;5108761;27;20762;-69
2021/06/13 13:25:12;;;;;;;4.82;1.60;;;;;;;;;;5128529;27;20203;-69
2021/06/13 13:27:38;;;;;;;3.13;1.88;;;;;;;;;;5146260;27;20728;-69
2021/06/13 13:30:05;;;;;;;3.45;1.13;;;;;;;;;;5152943;27;20642;-69
2021/06/13 13:32:50;;;;;;;0.57;0.57;;;;;;;;;;5163893;27;20234;-70
2021/06/13 13:35:25;;;;;;;1.70;1.10;;;;;;;;;;5166754;27;20214;-69
2021/06/13 13:37:52;;;;;;;0.75;0.50;;;;;;;;;;5154396;27;20680;-69
2021/06/13 13:40:18;;;;;;;7.20;1.35;;;;;;;;;;5150367;27;20270;-69
2021/06/13 13:42:54;;;;;;;1.77;0.77;;;;;;;;;;5130807;27;20689;-70
2021/06/13 13:45:25;;;;;;;0.65;0.63;;;;;;;;;;5132839;27;20236;-69
2021/06/13 13:47:53;;;;;;;1.27;0.98;;;;;;;;;;5127945;27;20287;-69
2021/06/13 13:50:32;;;;;;;3.35;0.93;;;;;;;;;;5122252;27;20722;-68
2021/06/13 13:53:12;;;;;;;1.17;0.75;;;;;;;;;;5148386;27;20254;-70
2021/06/13 13:55:48;;;;;;;1.17;1.08;;;;;;;;;;5139840;27;20282;-69
2021/06/13 13:58:18;;;;;;;1.27;1.10;;;;;;;;;;5142322;27;20230;-70
2021/06/13 14:00:45;;;;;;;0.85;0.57;;;;;;;;;;5149220;27;20285;-70
2021/06/13 14:03:12;;;;;;;2.00;1.05;;;;;;;;;;5149489;27;20218;-71
2021/06/13 14:05:39;;;;;;;1.23;0.80;;;;;;;;;;5122710;27;20230;-69
2021/06/13 14:08:05;;;;;;;0.70;0.55;;;;;;;;;;5149372;27;20214;-72
2021/06/13 14:10:32;;;;;;;1.65;0.85;;;;;;;;;;5149298;27;20202;-72
2021/06/13 14:12:58;;;;;;;2.13;0.57;;;;;;;;;;5149088;27;20921;-70
2021/06/13 14:15:25;;;;;;;3.15;1.40;;;;;;;;;;5149828;27;20734;-70
2021/06/13 14:17:51;;;;;;;3.88;2.30;;;;;;;;;;5129924;27;20259;-70
2021/06/13 14:20:17;;;;;;;9.07;6.15;;;;;;;;;;5142750;27;20587;-72
2021/06/13 14:22:44;;;;;;;9.38;6.25;;;;;;;;;;5126323;28;20258;-71
2021/06/13 14:25:11;;;;;;;0.88;0.80;;;;;;;;;;5141424;27;20271;-72
2021/06/13 14:27:37;;;;;;;29.05;17.77;;;;;;;;;;5131099;27;20330;-71
2021/06/13 14:30:04;;;;;;;11.18;7.47;;;;;;;;;;5128120;28;20329;-70
2021/06/13 14:32:30;;;;;;;2.72;2.15;;;;;;;;;;5126716;27;20223;-72
2021/06/13 14:34:56;;;;;;;2.08;1.08;;;;;;;;;;5126990;28;20207;-71
2021/06/13 14:37:23;;;;;;;3.75;2.58;;;;;;;;;;5136172;27;20207;-70
2021/06/13 14:39:54;;;;;;;5.70;2.92;;;;;;;;;;5128347;27;20227;-73
2021/06/13 14:42:21;;;;;;;1.27;0.80;;;;;;;;;;5130880;27;20227;-71
2021/06/13 14:44:47;;;;;;;2.13;1.50;;;;;;;;;;5133684;27;20225;-70
2021/06/13 14:47:14;;;;;;;1.42;1.20;;;;;;;;;;5153017;27;20331;-71
2021/06/13 14:49:40;;;;;;;0.70;0.70;;;;;;;;;;5152381;27;20206;-70
2021/06/13 14:52:07;;;;;;;2.78;1.77;;;;;;;;;;5151859;27;20659;-71
2021/06/13 14:54:33;;;;;;;0.77;0.68;;;;;;;;;;5151544;27;20293;-71
2021/06/13 14:57:00;;;;;;;0.50;0.50;;;;;;;;;;5120776;27;20219;-70
2021/06/13 14:59:26;;;;;;;2.17;0.98;;;;;;;;;;5146621;27;20198;-71
2021/06/13 15:01:53;;;;;;;1.48;0.95;;;;;;;;;;5150064;27;20206;-71
2021/06/13 15:04:19;;;;;;;8.45;5.93;;;;;;;;;;5137560;27;20203;-71
2021/06/13 15:06:46;;;;;;;13.63;7.10;;;;;;;;;;5111883;27;20279;-70
2021/06/13 15:09:12;;;;;;;1.92;1.58;;;;;;;;;;5139460;27;20199;-68